createdAt,value
2022-09-07T00:00:55.796Z,1013.25
2022-09-07T00:01:55.812Z,1013.27
2022-09-07T00:02:55.800Z,1013.25
2022-09-07T00:03:55.893Z,1013.27
2022-09-07T00:04:55.754Z,1013.29
2022-09-07T00:05:55.742Z,1013.24
2022-09-07T00:06:55.762Z,1013.25
2022-09-07T00:07:55.728Z,1013.25
2022-09-07T00:08:55.706Z,1013.23
2022-09-07T00:09:55.693Z,1013.24
2022-09-07T00:10:55.688Z,1013.19
2022-09-07T00:11:55.693Z,1013.20
2022-09-07T00:12:55.665Z,1013.19
2022-09-07T00:13:55.652Z,1013.18
2022-09-07T00:14:55.643Z,1013.17
2022-09-07T00:15:55.711Z,1013.11
2022-09-07T00:16:55.638Z,1013.11
2022-09-07T00:17:55.619Z,1013.04
2022-09-07T00:18:55.599Z,1013.03
2022-09-07T00:19:55.586Z,1013.10
2022-09-07T00:20:55.582Z,1013.08
2022-09-07T00:21:55.572Z,1013.08
2022-09-07T00:22:55.569Z,1013.07
2022-09-07T00:23:55.566Z,1013.06
2022-09-07T00:24:55.552Z,1013.03
2022-09-07T00:25:55.548Z,1013.01
2022-09-07T00:26:55.507Z,1012.99
2022-09-07T00:27:55.514Z,1013.04
2022-09-07T00:28:55.486Z,1012.96
2022-09-07T00:29:55.486Z,1012.92
2022-09-07T00:30:55.474Z,1013.01
2022-09-07T00:31:55.607Z,1012.95
2022-09-07T00:32:55.457Z,1012.99
2022-09-07T00:33:55.439Z,1012.98
2022-09-07T00:34:55.422Z,1012.94
2022-09-07T00:35:55.454Z,1012.89
2022-09-07T00:36:55.405Z,1012.95
2022-09-07T00:37:55.432Z,1012.99
2022-09-07T00:38:55.383Z,1013.00
2022-09-07T00:39:55.425Z,1012.96
2022-09-07T00:40:55.367Z,1013.07
2022-09-07T00:41:55.343Z,1013.08
2022-09-07T00:42:55.351Z,1013.07
2022-09-07T00:43:55.324Z,1013.05
2022-09-07T00:44:55.311Z,1013.03
2022-09-07T00:45:55.319Z,1013.03
2022-09-07T00:46:55.384Z,1013.09
2022-09-07T00:47:55.293Z,1013.00
2022-09-07T00:48:55.266Z,1013.01
2022-09-07T00:49:55.257Z,1013.04
2022-09-07T00:50:55.254Z,1013.00
2022-09-07T00:51:55.237Z,1013.00
2022-09-07T00:52:55.267Z,1013.03
2022-09-07T00:53:55.213Z,1013.06
2022-09-07T00:54:55.201Z,1013.06
2022-09-07T00:55:55.192Z,1013.01
2022-09-07T00:56:55.177Z,1012.99
2022-09-07T00:57:55.183Z,1012.91
2022-09-07T00:58:55.160Z,1012.97
2022-09-07T00:59:55.147Z,1012.94
2022-09-07T01:00:55.148Z,1012.99
2022-09-07T01:01:55.331Z,1012.96
2022-09-07T01:02:55.371Z,1013.00
2022-09-07T01:03:55.129Z,1012.97
2022-09-07T01:04:55.101Z,1012.98
2022-09-07T01:05:55.081Z,1012.98
2022-09-07T01:06:55.068Z,1012.90
2022-09-07T01:07:55.068Z,1012.90
2022-09-07T01:08:55.067Z,1012.91
2022-09-07T01:09:55.060Z,1012.90
2022-09-07T01:10:55.032Z,1012.90
2022-09-07T01:11:55.014Z,1012.89
2022-09-07T01:12:55.004Z,1012.87
2022-09-07T01:13:55.013Z,1012.87
2022-09-07T01:14:54.983Z,1012.88
2022-09-07T01:15:55.096Z,1012.92
2022-09-07T01:16:54.959Z,1012.89
2022-09-07T01:17:54.951Z,1012.91
2022-09-07T01:18:54.952Z,1012.85
2022-09-07T01:19:54.930Z,1012.92
2022-09-07T01:20:54.921Z,1012.87
2022-09-07T01:21:54.927Z,1012.85
2022-09-07T01:22:54.894Z,1012.77
2022-09-07T01:23:54.944Z,1012.84
2022-09-07T01:24:54.873Z,1012.78
2022-09-07T01:25:54.860Z,1012.82
2022-09-07T01:26:54.859Z,1012.84
2022-09-07T01:27:54.842Z,1012.82
2022-09-07T01:28:54.844Z,1012.86
2022-09-07T01:29:54.847Z,1012.79
2022-09-07T01:30:54.864Z,1012.75
2022-09-07T01:31:54.812Z,1012.86
2022-09-07T01:32:54.817Z,1012.86
2022-09-07T01:33:54.791Z,1012.81
2022-09-07T01:34:54.764Z,1012.76
2022-09-07T01:35:54.779Z,1012.78
2022-09-07T01:36:54.743Z,1012.77
2022-09-07T01:37:56.987Z,1012.75
2022-09-07T01:38:54.724Z,1012.74
2022-09-07T01:39:54.779Z,1012.77
2022-09-07T01:40:54.730Z,1012.78
2022-09-07T01:41:54.685Z,1012.77
2022-09-07T01:42:54.674Z,1012.76
2022-09-07T01:43:54.673Z,1012.76
2022-09-07T01:44:54.675Z,1012.80
2022-09-07T01:45:54.687Z,1012.76
2022-09-07T01:46:54.647Z,1012.81
2022-09-07T01:47:54.622Z,1012.81
2022-09-07T01:48:54.613Z,1012.84
2022-09-07T01:49:54.601Z,1012.85
2022-09-07T01:50:54.596Z,1012.76
2022-09-07T01:51:54.593Z,1012.69
2022-09-07T01:52:54.568Z,1012.71
2022-09-07T01:53:54.566Z,1012.72
2022-09-07T01:54:54.541Z,1012.75
2022-09-07T01:55:54.546Z,1012.66
2022-09-07T01:56:54.552Z,1012.64
2022-09-07T01:57:54.517Z,1012.68
2022-09-07T01:58:54.501Z,1012.67
2022-09-07T01:59:54.493Z,1012.69
2022-09-07T02:00:54.500Z,1012.66
2022-09-07T02:01:54.544Z,1012.69
2022-09-07T02:02:54.541Z,1012.74
2022-09-07T02:03:54.446Z,1012.70
2022-09-07T02:04:54.435Z,1012.68
2022-09-07T02:05:54.421Z,1012.68
2022-09-07T02:06:54.426Z,1012.68
2022-09-07T02:07:54.406Z,1012.66
2022-09-07T02:08:54.401Z,1012.66
2022-09-07T02:09:54.385Z,1012.64
2022-09-07T02:10:54.393Z,1012.66
2022-09-07T02:11:54.365Z,1012.61
2022-09-07T02:12:54.360Z,1012.59
2022-09-07T02:13:54.356Z,1012.55
2022-09-07T02:14:54.345Z,1012.59
2022-09-07T02:15:54.359Z,1012.58
2022-09-07T02:16:54.321Z,1012.56
2022-09-07T02:17:54.303Z,1012.62
2022-09-07T02:18:54.283Z,1012.53
2022-09-07T02:19:54.278Z,1012.58
2022-09-07T02:20:54.258Z,1012.56
2022-09-07T02:21:54.273Z,1012.61
2022-09-07T02:22:54.264Z,1012.63
2022-09-07T02:23:54.229Z,1012.55
2022-09-07T02:24:54.231Z,1012.58
2022-09-07T02:25:54.227Z,1012.59
2022-09-07T02:26:54.192Z,1012.63
2022-09-07T02:27:54.195Z,1012.58
2022-09-07T02:28:54.177Z,1012.60
2022-09-07T02:29:54.163Z,1012.63
2022-09-07T02:30:54.200Z,1012.62
2022-09-07T02:31:54.140Z,1012.65
2022-09-07T02:32:54.142Z,1012.61
2022-09-07T02:33:54.118Z,1012.56
2022-09-07T02:34:54.129Z,1012.59
2022-09-07T02:35:54.111Z,1012.61
2022-09-07T02:36:54.096Z,1012.60
2022-09-07T02:37:54.085Z,1012.55
2022-09-07T02:38:54.065Z,1012.59
2022-09-07T02:39:54.108Z,1012.55
2022-09-07T02:40:54.043Z,1012.53
2022-09-07T02:41:54.030Z,1012.53
2022-09-07T02:42:54.033Z,1012.52
2022-09-07T02:43:54.015Z,1012.55
2022-09-07T02:44:54.001Z,1012.53
2022-09-07T02:45:54.088Z,1012.45
2022-09-07T02:46:53.968Z,1012.43
2022-09-07T02:47:53.987Z,1012.48
2022-09-07T02:48:53.980Z,1012.50
2022-09-07T02:49:53.950Z,1012.51
2022-09-07T02:50:53.928Z,1012.54
2022-09-07T02:51:53.958Z,1012.57
2022-09-07T02:52:53.923Z,1012.56
2022-09-07T02:53:53.907Z,1012.52
2022-09-07T02:54:53.896Z,1012.51
2022-09-07T02:55:53.890Z,1012.48
2022-09-07T02:56:53.866Z,1012.50
2022-09-07T02:57:53.852Z,1012.49
2022-09-07T02:58:53.859Z,1012.47
2022-09-07T02:59:53.832Z,1012.56
2022-09-07T03:00:53.817Z,1012.51
2022-09-07T03:01:53.887Z,1012.52
2022-09-07T03:02:53.902Z,1012.52
2022-09-07T03:03:53.796Z,1012.50
2022-09-07T03:04:53.811Z,1012.49
2022-09-07T03:05:53.801Z,1012.49
2022-09-07T03:06:53.800Z,1012.54
2022-09-07T03:07:53.783Z,1012.52
2022-09-07T03:08:53.787Z,1012.50
2022-09-07T03:09:53.723Z,1012.51
2022-09-07T03:10:53.708Z,1012.53
2022-09-07T03:11:53.698Z,1012.56
2022-09-07T03:12:53.699Z,1012.54
2022-09-07T03:13:53.698Z,1012.55
2022-09-07T03:14:53.669Z,1012.48
2022-09-07T03:15:55.937Z,1012.47
2022-09-07T03:16:53.665Z,1012.37
2022-09-07T03:17:53.641Z,1012.40
2022-09-07T03:18:53.664Z,1012.35
2022-09-07T03:19:53.614Z,1012.37
2022-09-07T03:20:53.600Z,1012.36
2022-09-07T03:21:53.587Z,1012.30
2022-09-07T03:22:53.601Z,1012.38
2022-09-07T03:23:53.583Z,1012.40
2022-09-07T03:24:53.572Z,1012.35
2022-09-07T03:25:53.547Z,1012.41
2022-09-07T03:26:53.563Z,1012.44
2022-09-07T03:27:53.521Z,1012.46
2022-09-07T03:28:53.546Z,1012.44
2022-09-07T03:29:53.495Z,1012.45
2022-09-07T03:30:53.553Z,1012.46
2022-09-07T03:31:53.512Z,1012.45
2022-09-07T03:32:53.483Z,1012.44
2022-09-07T03:33:53.497Z,1012.44
2022-09-07T03:34:53.448Z,1012.44
2022-09-07T03:35:53.446Z,1012.49
2022-09-07T03:36:53.428Z,1012.47
2022-09-07T03:37:53.407Z,1012.46
2022-09-07T03:38:53.414Z,1012.48
2022-09-07T03:39:53.492Z,1012.43
2022-09-07T03:40:53.386Z,1012.41
2022-09-07T03:41:53.370Z,1012.45
2022-09-07T03:42:53.400Z,1012.36
2022-09-07T03:43:53.343Z,1012.38
2022-09-07T03:44:53.346Z,1012.33
2022-09-07T03:45:53.372Z,1012.29
2022-09-07T03:46:53.312Z,1012.27
2022-09-07T03:47:53.300Z,1012.30
2022-09-07T03:48:53.309Z,1012.29
2022-09-07T03:49:53.316Z,1012.27
2022-09-07T03:50:53.267Z,1012.25
2022-09-07T03:51:53.252Z,1012.25
2022-09-07T03:52:53.255Z,1012.30
2022-09-07T03:53:53.246Z,1012.26
2022-09-07T03:54:53.237Z,1012.19
2022-09-07T03:55:53.211Z,1012.22
2022-09-07T03:56:53.211Z,1012.20
2022-09-07T03:57:53.190Z,1012.17
2022-09-07T03:58:53.178Z,1012.22
2022-09-07T03:59:53.181Z,1012.16
2022-09-07T04:00:53.156Z,1012.16
2022-09-07T04:01:53.186Z,1012.05
2022-09-07T04:02:53.215Z,1012.05
2022-09-07T04:03:53.138Z,1011.97
2022-09-07T04:04:53.133Z,1011.97
2022-09-07T04:05:53.099Z,1011.98
2022-09-07T04:06:53.087Z,1011.94
2022-09-07T04:07:53.085Z,1011.97
2022-09-07T04:08:53.080Z,1011.94
2022-09-07T04:09:53.073Z,1011.95
2022-09-07T04:10:53.059Z,1011.96
2022-09-07T04:11:53.035Z,1011.96
2022-09-07T04:12:53.055Z,1011.97
2022-09-07T04:13:53.011Z,1011.95
2022-09-07T04:14:53.010Z,1011.97
2022-09-07T04:15:53.949Z,1011.91
2022-09-07T04:16:53.052Z,1011.88
2022-09-07T04:17:53.033Z,1011.97
2022-09-07T04:18:52.959Z,1011.94
2022-09-07T04:19:52.953Z,1011.95
2022-09-07T04:20:52.985Z,1012.00
2022-09-07T04:21:52.936Z,1011.98
2022-09-07T04:22:54.359Z,1011.96
2022-09-07T04:23:52.947Z,1011.94
2022-09-07T04:24:52.909Z,1011.91
2022-09-07T04:25:52.906Z,1011.94
2022-09-07T04:26:52.875Z,1011.89
2022-09-07T04:27:52.887Z,1011.93
2022-09-07T04:28:52.856Z,1011.84
2022-09-07T04:29:52.847Z,1011.91
2022-09-07T04:30:52.893Z,1011.90
2022-09-07T04:31:52.822Z,1011.89
2022-09-07T04:32:52.809Z,1011.96
2022-09-07T04:33:52.793Z,1011.91
2022-09-07T04:34:52.820Z,1011.93
2022-09-07T04:35:52.787Z,1011.90
2022-09-07T04:36:52.787Z,1011.87
2022-09-07T04:37:52.751Z,1011.85
2022-09-07T04:38:52.745Z,1011.82
2022-09-07T04:39:52.811Z,1011.82
2022-09-07T04:40:52.733Z,1011.76
2022-09-07T04:41:52.708Z,1011.87
2022-09-07T04:42:52.696Z,1011.84
2022-09-07T04:43:52.690Z,1011.84
2022-09-07T04:44:52.682Z,1011.92
2022-09-07T04:45:52.747Z,1011.89
2022-09-07T04:46:52.664Z,1011.85
2022-09-07T04:47:52.646Z,1011.85
2022-09-07T04:48:52.652Z,1011.89
2022-09-07T04:49:52.622Z,1011.86
2022-09-07T04:50:52.638Z,1011.89
2022-09-07T04:51:52.602Z,1011.84
2022-09-07T04:52:52.593Z,1011.89
2022-09-07T04:53:52.586Z,1011.89
2022-09-07T04:54:52.593Z,1011.84
2022-09-07T04:55:52.587Z,1011.88
2022-09-07T04:56:52.562Z,1011.91
2022-09-07T04:57:52.534Z,1011.86
2022-09-07T04:58:52.530Z,1011.90
2022-09-07T04:59:52.513Z,1011.99
2022-09-07T05:00:52.571Z,1012.05
2022-09-07T05:01:52.561Z,1012.00
2022-09-07T05:02:52.503Z,1012.00
2022-09-07T05:03:52.478Z,1011.99
2022-09-07T05:04:52.463Z,1011.94
2022-09-07T05:05:52.496Z,1011.99
2022-09-07T05:06:52.443Z,1011.94
2022-09-07T05:07:52.461Z,1011.92
2022-09-07T05:08:52.419Z,1011.83
2022-09-07T05:09:52.403Z,1011.78
2022-09-07T05:10:52.415Z,1011.82
2022-09-07T05:11:52.402Z,1011.79
2022-09-07T05:12:52.393Z,1011.76
2022-09-07T05:13:52.366Z,1011.76
2022-09-07T05:14:52.362Z,1011.75
2022-09-07T05:15:52.358Z,1011.75
2022-09-07T05:16:52.411Z,1011.75
2022-09-07T05:17:52.342Z,1011.70
2022-09-07T05:18:52.316Z,1011.75
2022-09-07T05:19:52.309Z,1011.76
2022-09-07T05:20:52.500Z,1011.78
2022-09-07T05:21:52.313Z,1011.79
2022-09-07T05:22:52.275Z,1011.79
2022-09-07T05:23:52.262Z,1011.85
2022-09-07T05:24:52.243Z,1011.88
2022-09-07T05:25:52.250Z,1011.78
2022-09-07T05:26:52.225Z,1011.88
2022-09-07T05:27:52.219Z,1011.92
2022-09-07T05:28:52.250Z,1011.81
2022-09-07T05:30:07.618Z,1011.88
2022-09-07T05:31:53.162Z,1011.85
2022-09-07T05:32:52.159Z,1011.85
2022-09-07T05:34:53.198Z,1011.74
2022-09-07T05:35:52.154Z,1011.74
2022-09-07T05:36:52.128Z,1011.79
2022-09-07T05:37:52.119Z,1011.76
2022-09-07T05:38:52.089Z,1011.76
2022-09-07T05:39:52.125Z,1011.76
2022-09-07T05:40:52.068Z,1011.75
2022-09-07T05:41:52.084Z,1011.71
2022-09-07T05:42:52.057Z,1011.78
2022-09-07T05:44:53.025Z,1011.73
2022-09-07T05:45:52.079Z,1011.76
2022-09-07T05:46:52.030Z,1011.78
2022-09-07T05:47:51.995Z,1011.74
2022-09-07T05:48:52.018Z,1011.79
2022-09-07T05:49:54.026Z,1011.77
2022-09-07T05:50:51.956Z,1011.81
2022-09-07T05:51:51.971Z,1011.74
2022-09-07T05:52:51.941Z,1011.76
2022-09-07T05:53:51.929Z,1011.77
2022-09-07T05:54:54.334Z,1011.75
2022-09-07T05:55:51.906Z,1011.76
2022-09-07T05:56:51.911Z,1011.78
2022-09-07T05:57:51.895Z,1011.86
2022-09-07T05:58:51.879Z,1011.83
2022-09-07T05:59:51.862Z,1011.83
2022-09-07T06:00:51.856Z,1011.87
2022-09-07T06:01:51.968Z,1011.87
2022-09-07T06:02:51.963Z,1011.86
2022-09-07T06:03:51.822Z,1011.84
2022-09-07T06:04:51.808Z,1011.85
2022-09-07T06:05:51.795Z,1011.86
2022-09-07T06:07:19.978Z,1011.81
2022-09-07T06:07:52.792Z,1011.79
2022-09-07T06:08:51.773Z,1011.84
2022-09-07T06:10:52.752Z,1011.83
2022-09-07T06:11:51.742Z,1011.90
2022-09-07T06:12:51.735Z,1011.84
2022-09-07T06:13:51.716Z,1011.84
2022-09-07T06:14:51.740Z,1011.87
2022-09-07T06:15:51.718Z,1011.87
2022-09-07T06:16:51.803Z,1011.91
2022-09-07T06:17:51.723Z,1011.77
2022-09-07T06:18:51.656Z,1011.81
2022-09-07T06:19:51.654Z,1011.80
2022-09-07T06:20:51.636Z,1011.83
2022-09-07T06:21:51.647Z,1011.78
2022-09-07T06:22:51.609Z,1011.81
2022-09-07T06:23:51.617Z,1011.80
2022-09-07T06:24:51.600Z,1011.84
2022-09-07T06:25:51.592Z,1011.83
2022-09-07T06:26:51.658Z,1011.84
2022-09-07T06:27:51.575Z,1011.86
2022-09-07T06:28:55.897Z,1011.92
2022-09-07T06:29:52.545Z,1011.90
2022-09-07T06:30:51.524Z,1011.87
2022-09-07T06:32:52.520Z,1011.81
2022-09-07T06:33:51.496Z,1011.81
2022-09-07T06:34:51.486Z,1011.78
2022-09-07T06:35:51.483Z,1011.78
2022-09-07T06:36:51.476Z,1011.82
2022-09-07T06:37:51.455Z,1011.79
2022-09-07T06:38:51.441Z,1011.71
2022-09-07T06:39:51.489Z,1011.79
2022-09-07T06:41:59.575Z,1011.78
2022-09-07T06:42:52.409Z,1011.76
2022-09-07T06:43:51.398Z,1011.81
2022-09-07T06:44:51.380Z,1011.82
2022-09-07T06:45:51.657Z,1011.86
2022-09-07T06:47:06.720Z,1011.82
2022-09-07T06:47:52.350Z,1011.84
2022-09-07T06:48:51.342Z,1011.80
2022-09-07T06:49:51.324Z,1011.82
2022-09-07T06:50:51.304Z,1011.78
2022-09-07T06:51:53.007Z,1011.79
2022-09-07T06:53:52.813Z,1011.84
2022-09-07T06:54:58.757Z,1011.82
2022-09-07T06:55:52.264Z,1011.81
2022-09-07T06:56:51.244Z,1011.76
2022-09-07T06:57:51.263Z,1011.79
2022-09-07T06:58:51.243Z,1011.80
2022-09-07T06:59:51.214Z,1011.77
2022-09-07T07:00:51.275Z,1011.78
2022-09-07T07:01:51.191Z,1011.79
2022-09-07T07:02:51.252Z,1011.85
2022-09-07T07:03:51.174Z,1011.83
2022-09-07T07:04:51.157Z,1011.82
2022-09-07T07:05:51.150Z,1011.74
2022-09-07T07:06:51.151Z,1011.76
2022-09-07T07:07:51.146Z,1011.71
2022-09-07T07:08:51.118Z,1011.66
2022-09-07T07:09:51.120Z,1011.64
2022-09-07T07:10:51.107Z,1011.61
2022-09-07T07:11:51.104Z,1011.63
2022-09-07T07:12:51.095Z,1011.56
2022-09-07T07:13:51.086Z,1011.55
2022-09-07T07:14:51.046Z,1011.60
2022-09-07T07:15:51.029Z,1011.62
2022-09-07T07:16:51.091Z,1011.58
2022-09-07T07:17:58.069Z,1011.61
2022-09-07T07:18:51.995Z,1011.56
2022-09-07T07:19:50.994Z,1011.55
2022-09-07T07:20:50.973Z,1011.52
2022-09-07T07:22:51.951Z,1011.55
2022-09-07T07:23:50.953Z,1011.58
2022-09-07T07:24:50.924Z,1011.54
2022-09-07T07:25:50.919Z,1011.51
2022-09-07T07:26:50.932Z,1011.47
2022-09-07T07:27:51.010Z,1011.51
2022-09-07T07:29:06.295Z,1011.54
2022-09-07T07:29:51.874Z,1011.49
2022-09-07T07:30:50.863Z,1011.49
2022-09-07T07:31:50.863Z,1011.51
2022-09-07T07:32:50.853Z,1011.49
2022-09-07T07:33:50.924Z,1011.50
2022-09-07T07:34:50.835Z,1011.49
2022-09-07T07:35:50.816Z,1011.51
2022-09-07T07:36:50.827Z,1011.48
2022-09-07T07:37:50.811Z,1011.47
2022-09-07T07:42:50.730Z,1011.48
2022-09-07T07:43:50.767Z,1011.50
2022-09-07T07:45:54.831Z,1011.49
2022-09-07T07:46:50.896Z,1011.60
2022-09-07T07:47:50.683Z,1011.50
2022-09-07T07:48:50.666Z,1011.57
2022-09-07T07:50:30.462Z,1011.58
2022-09-07T07:50:51.671Z,1011.62
2022-09-07T07:53:41.351Z,1011.61
2022-09-07T07:53:51.634Z,1011.63
2022-09-07T07:54:50.634Z,1011.67
2022-09-07T07:55:50.627Z,1011.63
2022-09-07T07:56:50.589Z,1011.57
2022-09-07T07:57:50.569Z,1011.61
2022-09-07T07:58:50.571Z,1011.60
2022-09-07T07:59:50.553Z,1011.58
2022-09-07T08:00:54.784Z,1011.56
2022-09-07T08:01:51.736Z,1011.52
2022-09-07T08:02:50.601Z,1011.55
2022-09-07T08:03:50.528Z,1011.57
2022-09-07T08:04:50.499Z,1011.55
2022-09-07T08:05:50.495Z,1011.49
2022-09-07T08:06:50.467Z,1011.55
2022-09-07T08:07:50.499Z,1011.53
2022-09-07T08:08:50.465Z,1011.47
2022-09-07T08:09:50.447Z,1011.54
2022-09-07T08:10:50.441Z,1011.54
2022-09-07T08:11:50.422Z,1011.51
2022-09-07T08:12:50.421Z,1011.42
2022-09-07T08:13:50.404Z,1011.39
2022-09-07T08:14:50.391Z,1011.43
2022-09-07T08:15:50.434Z,1011.42
2022-09-07T08:16:50.370Z,1011.37
2022-09-07T08:17:50.384Z,1011.36
2022-09-07T08:18:50.343Z,1011.40
2022-09-07T08:19:50.339Z,1011.41
2022-09-07T08:20:50.326Z,1011.41
2022-09-07T08:21:50.329Z,1011.42
2022-09-07T08:22:50.298Z,1011.35
2022-09-07T08:23:50.514Z,1011.33
2022-09-07T08:24:50.309Z,1011.45
2022-09-07T08:25:50.271Z,1011.37
2022-09-07T08:26:50.261Z,1011.36
2022-09-07T08:27:50.238Z,1011.40
2022-09-07T08:28:50.255Z,1011.40
2022-09-07T08:29:50.240Z,1011.50
2022-09-07T08:30:50.218Z,1011.50
2022-09-07T08:31:50.337Z,1011.49
2022-09-07T08:32:50.189Z,1011.48
2022-09-07T08:33:50.177Z,1011.49
2022-09-07T08:34:50.167Z,1011.48
2022-09-07T08:35:50.213Z,1011.48
2022-09-07T08:36:50.149Z,1011.43
2022-09-07T08:37:50.164Z,1011.49
2022-09-07T08:38:50.126Z,1011.49
2022-09-07T08:39:50.253Z,1011.46
2022-09-07T08:40:50.097Z,1011.46
2022-09-07T08:41:50.136Z,1011.47
2022-09-07T08:42:50.089Z,1011.41
2022-09-07T08:43:50.075Z,1011.44
2022-09-07T08:44:50.056Z,1011.43
2022-09-07T08:45:50.089Z,1011.44
2022-09-07T08:46:50.285Z,1011.37
2022-09-07T08:47:50.061Z,1011.41
2022-09-07T08:48:50.020Z,1011.33
2022-09-07T08:49:50.015Z,1011.40
2022-09-07T08:50:50.006Z,1011.37
2022-09-07T08:51:49.983Z,1011.39
2022-09-07T08:52:49.981Z,1011.32
2022-09-07T08:53:50.003Z,1011.30
2022-09-07T08:54:49.945Z,1011.22
2022-09-07T08:55:50.326Z,1011.21
2022-09-07T08:57:50.947Z,1011.18
2022-09-07T08:58:50.438Z,1011.16
2022-09-07T08:59:49.918Z,1011.18
2022-09-07T09:00:50.265Z,1011.13
2022-09-07T09:05:50.985Z,1011.17
2022-09-07T09:06:49.975Z,1011.10
2022-09-07T09:07:49.799Z,1011.08
2022-09-07T09:08:49.799Z,1011.17
2022-09-07T09:09:49.798Z,1011.10
2022-09-07T09:10:49.770Z,1011.11
2022-09-07T09:11:49.766Z,1011.09
2022-09-07T09:12:49.758Z,1011.17
2022-09-07T09:13:49.756Z,1011.12
2022-09-07T09:14:49.731Z,1011.11
2022-09-07T09:15:49.783Z,1011.08
2022-09-07T09:16:49.698Z,1011.10
2022-09-07T09:17:49.703Z,1011.13
2022-09-07T09:18:49.694Z,1011.09
2022-09-07T09:19:49.679Z,1011.13
2022-09-07T09:20:49.690Z,1011.09
2022-09-07T09:21:49.650Z,1011.12
2022-09-07T09:22:49.641Z,1011.10
2022-09-07T09:23:49.637Z,1011.09
2022-09-07T09:24:49.634Z,1011.05
2022-09-07T09:25:49.628Z,1011.06
2022-09-07T09:27:49.590Z,1011.06
2022-09-07T09:28:49.576Z,1011.08
2022-09-07T09:29:49.583Z,1011.10
2022-09-07T09:30:49.621Z,1011.13
2022-09-07T09:31:49.545Z,1011.14
2022-09-07T09:32:49.558Z,1011.12
2022-09-07T09:33:49.533Z,1011.08
2022-09-07T09:34:49.536Z,1011.14
2022-09-07T09:35:49.502Z,1011.14
2022-09-07T09:36:49.495Z,1011.24
2022-09-07T09:37:49.476Z,1011.16
2022-09-07T09:38:49.466Z,1011.12
2022-09-07T09:39:51.172Z,1011.10
2022-09-07T09:40:50.447Z,1011.08
2022-09-07T09:41:49.456Z,1011.09
2022-09-07T09:42:49.421Z,1011.11
2022-09-07T09:43:49.412Z,1011.15
2022-09-07T09:44:49.414Z,1011.06
2022-09-07T09:47:29.461Z,1011.06
2022-09-07T09:47:50.470Z,1011.08
2022-09-07T09:48:49.354Z,1011.02
2022-09-07T09:49:49.397Z,1011.02
2022-09-07T09:52:52.002Z,1010.92
2022-09-07T09:53:49.311Z,1010.87
2022-09-07T09:54:49.304Z,1010.90
2022-09-07T09:55:49.293Z,1010.87
2022-09-07T09:56:49.275Z,1010.95
2022-09-07T09:59:56.281Z,1010.92
2022-09-07T10:00:00.379Z,1010.87
2022-09-07T10:03:59.411Z,1010.96
2022-09-07T10:04:50.177Z,1010.93
2022-09-07T10:05:49.180Z,1010.90
2022-09-07T10:06:49.157Z,1010.82
2022-09-07T10:07:49.151Z,1010.94
2022-09-07T10:08:49.139Z,1010.91
2022-09-07T10:09:49.127Z,1010.95
2022-09-07T10:10:49.145Z,1010.94
2022-09-07T10:12:50.086Z,1010.92
2022-09-07T10:13:49.092Z,1010.92
2022-09-07T10:14:49.075Z,1010.93
2022-09-07T10:15:49.109Z,1010.86
2022-09-07T10:16:49.068Z,1010.87
2022-09-07T10:17:49.043Z,1010.89
2022-09-07T10:18:49.047Z,1010.82
2022-09-07T10:19:49.024Z,1010.74
2022-09-07T10:20:49.044Z,1010.77
2022-09-07T10:21:48.990Z,1010.71
2022-09-07T10:22:51.546Z,1010.81
2022-09-07T10:23:48.969Z,1010.69
2022-09-07T10:24:48.974Z,1010.73
2022-09-07T10:25:48.967Z,1010.66
2022-09-07T10:26:48.939Z,1010.63
2022-09-07T10:27:48.931Z,1010.63
2022-09-07T10:29:49.948Z,1010.66
2022-09-07T10:30:48.948Z,1010.63
2022-09-07T10:31:48.890Z,1010.65
2022-09-07T10:32:48.882Z,1010.62
2022-09-07T10:34:49.880Z,1010.57
2022-09-07T10:35:48.870Z,1010.59
2022-09-07T10:36:48.845Z,1010.64
2022-09-07T10:37:48.823Z,1010.59
2022-09-07T10:38:48.815Z,1010.54
2022-09-07T10:39:48.830Z,1010.55
2022-09-07T10:40:48.795Z,1010.55
2022-09-07T10:41:48.800Z,1010.54
2022-09-07T10:43:49.761Z,1010.53
2022-09-07T10:44:48.743Z,1010.62
2022-09-07T10:45:48.853Z,1010.57
2022-09-07T10:46:56.657Z,1010.58
2022-09-07T10:47:49.713Z,1010.65
2022-09-07T10:48:48.705Z,1010.58
2022-09-07T10:50:49.679Z,1010.59
2022-09-07T10:51:48.687Z,1010.62
2022-09-07T10:52:48.669Z,1010.62
2022-09-07T10:54:29.929Z,1010.62
2022-09-07T10:54:49.815Z,1010.61
2022-09-07T10:55:48.629Z,1010.63
2022-09-07T10:56:48.633Z,1010.69
2022-09-07T10:57:49.367Z,1010.65
2022-09-07T10:59:04.543Z,1010.64
2022-09-07T11:00:49.575Z,1010.59
2022-09-07T11:01:48.672Z,1010.54
2022-09-07T11:03:49.583Z,1010.54
2022-09-07T11:04:48.533Z,1010.50
2022-09-07T11:05:48.521Z,1010.56
2022-09-07T11:06:48.515Z,1010.51
2022-09-07T11:07:48.516Z,1010.52
2022-09-07T11:09:18.590Z,1010.45
2022-09-07T11:09:49.478Z,1010.45
2022-09-07T11:10:48.466Z,1010.51
2022-09-07T11:12:04.422Z,1010.48
2022-09-07T11:12:49.466Z,1010.48
2022-09-07T11:14:11.454Z,1010.50
2022-09-07T11:14:49.423Z,1010.47
2022-09-07T11:15:48.444Z,1010.45
2022-09-07T11:16:51.796Z,1010.46
2022-09-07T11:17:52.820Z,1010.42
2022-09-07T11:18:48.390Z,1010.42
2022-09-07T11:19:48.376Z,1010.39
2022-09-07T11:20:48.366Z,1010.43
2022-09-07T11:22:03.595Z,1010.35
2022-09-07T11:22:49.382Z,1010.39
2022-09-07T11:23:48.330Z,1010.34
2022-09-07T11:25:29.145Z,1010.42
2022-09-07T11:25:49.305Z,1010.41
2022-09-07T11:26:48.299Z,1010.37
2022-09-07T11:27:48.316Z,1010.42
2022-09-07T11:29:28.795Z,1010.46
2022-09-07T11:29:49.265Z,1010.45
2022-09-07T11:30:48.307Z,1010.44
2022-09-07T11:31:48.240Z,1010.48
2022-09-07T11:32:48.253Z,1010.46
2022-09-07T11:34:49.211Z,1010.56
2022-09-07T11:35:48.203Z,1010.55
2022-09-07T11:36:48.190Z,1010.56
2022-09-07T11:37:48.206Z,1010.50
2022-09-07T11:38:48.175Z,1010.50
2022-09-07T11:39:48.200Z,1010.49
2022-09-07T11:40:48.149Z,1010.47
2022-09-07T11:41:48.138Z,1010.47
2022-09-07T11:42:48.140Z,1010.42
2022-09-07T11:43:48.112Z,1010.46
2022-09-07T11:44:48.149Z,1010.50
2022-09-07T11:45:48.151Z,1010.53
2022-09-07T11:46:48.095Z,1010.53
2022-09-07T11:47:48.100Z,1010.48
2022-09-07T11:48:48.109Z,1010.46
2022-09-07T11:49:52.058Z,1010.42
2022-09-07T11:50:49.059Z,1010.41
2022-09-07T11:51:53.564Z,1010.38
2022-09-07T11:52:53.624Z,1010.41
2022-09-07T11:53:48.019Z,1010.41
2022-09-07T11:54:48.000Z,1010.40
2022-09-07T11:55:48.002Z,1010.37
2022-09-07T11:56:47.978Z,1010.40
2022-09-07T11:57:50.490Z,1010.39
2022-09-07T11:58:48.968Z,1010.39
2022-09-07T11:59:47.948Z,1010.43
2022-09-07T12:00:47.930Z,1010.43
2022-09-07T12:01:47.924Z,1010.42
2022-09-07T12:02:59.487Z,1010.39
2022-09-07T12:03:49.055Z,1010.40
2022-09-07T12:04:49.968Z,1010.44
2022-09-07T12:05:47.899Z,1010.40
2022-09-07T12:06:47.928Z,1010.49
2022-09-07T12:07:47.889Z,1010.42
2022-09-07T12:08:47.857Z,1010.46
2022-09-07T12:09:47.851Z,1010.39
2022-09-07T12:10:47.831Z,1010.43
2022-09-07T12:11:47.816Z,1010.41
2022-09-07T12:12:47.818Z,1010.39
2022-09-07T12:13:47.858Z,1010.43
2022-09-07T12:14:47.797Z,1010.44
2022-09-07T12:15:47.873Z,1010.38
2022-09-07T12:16:47.763Z,1010.39
2022-09-07T12:17:47.761Z,1010.38
2022-09-07T12:18:47.754Z,1010.36
2022-09-07T12:19:47.760Z,1010.32
2022-09-07T12:20:47.724Z,1010.40
2022-09-07T12:21:47.726Z,1010.31
2022-09-07T12:22:47.695Z,1010.30
2022-09-07T12:23:47.686Z,1010.25
2022-09-07T12:24:47.695Z,1010.25
2022-09-07T12:25:47.664Z,1010.29
2022-09-07T12:26:47.661Z,1010.28
2022-09-07T12:27:47.649Z,1010.28
2022-09-07T12:28:47.632Z,1010.24
2022-09-07T12:29:47.642Z,1010.20
2022-09-07T12:30:47.659Z,1010.24
2022-09-07T12:31:57.769Z,1010.25
2022-09-07T12:32:57.395Z,1010.18
2022-09-07T12:33:48.576Z,1010.18
2022-09-07T12:34:47.569Z,1010.25
2022-09-07T12:35:47.583Z,1010.22
2022-09-07T12:36:47.550Z,1010.22
2022-09-07T12:37:47.566Z,1010.16
2022-09-07T12:38:47.527Z,1010.16
2022-09-07T12:39:47.601Z,1010.11
2022-09-07T12:40:47.530Z,1010.06